sensor_id;sensor_type;location;lat;lon;timestamp;P1;durP1;ratioP1;P2;durP2;ratioP2
53549;SDS011;67273;52.914;-0.982;2023-02-24T00:00:27;4.85;;;2.75;;
53549;SDS011;67273;52.914;-0.982;2023-02-24T00:05:23;5.65;;;2.70;;
53549;SDS011;67273;52.914;-0.982;2023-02-24T00:07:49;4.63;;;2.95;;
53549;SDS011;67273;52.914;-0.982;2023-02-24T00:10:15;5.70;;;3.10;;
53549;SDS011;67273;52.914;-0.982;2023-02-24T00:12:45;5.43;;;3.00;;
53549;SDS011;67273;52.914;-0.982;2023-02-24T00:15:11;5.07;;;2.70;;
53549;SDS011;67273;52.914;-0.982;2023-02-24T00:17:38;4.70;;;2.80;;
53549;SDS011;67273;52.914;-0.982;2023-02-24T00:20:04;5.25;;;3.00;;
53549;SDS011;67273;52.914;-0.982;2023-02-24T00:22:36;5.40;;;3.08;;
53549;SDS011;67273;52.914;-0.982;2023-02-24T00:25:02;5.43;;;2.97;;
53549;SDS011;67273;52.914;-0.982;2023-02-24T00:27:28;5.07;;;3.10;;
53549;SDS011;67273;52.914;-0.982;2023-02-24T00:29:55;6.60;;;3.03;;
53549;SDS011;67273;52.914;-0.982;2023-02-24T00:32:21;6.32;;;3.40;;
53549;SDS011;67273;52.914;-0.982;2023-02-24T00:34:48;5.25;;;3.13;;
53549;SDS011;67273;52.914;-0.982;2023-02-24T00:37:14;4.50;;;3.10;;
53549;SDS011;67273;52.914;-0.982;2023-02-24T00:39:43;7.10;;;3.10;;
53549;SDS011;67273;52.914;-0.982;2023-02-24T00:42:08;6.32;;;3.15;;
53549;SDS011;67273;52.914;-0.982;2023-02-24T00:44:36;6.10;;;3.20;;
53549;SDS011;67273;52.914;-0.982;2023-02-24T00:47:03;5.55;;;3.00;;
53549;SDS011;67273;52.914;-0.982;2023-02-24T00:49:32;6.00;;;2.95;;
53549;SDS011;67273;52.914;-0.982;2023-02-24T00:52:01;5.88;;;3.20;;
53549;SDS011;67273;52.914;-0.982;2023-02-24T00:54:33;5.57;;;3.03;;
53549;SDS011;67273;52.914;-0.982;2023-02-24T00:57:00;4.35;;;2.70;;
53549;SDS011;67273;52.914;-0.982;2023-02-24T00:59:27;4.95;;;2.83;;
53549;SDS011;67273;52.914;-0.982;2023-02-24T01:01:53;5.10;;;3.13;;
53549;SDS011;67273;52.914;-0.982;2023-02-24T01:04:20;4.80;;;2.60;;
53549;SDS011;67273;52.914;-0.982;2023-02-24T01:06:46;4.60;;;2.50;;
53549;SDS011;67273;52.914;-0.982;2023-02-24T01:09:17;5.20;;;3.03;;
53549;SDS011;67273;52.914;-0.982;2023-02-24T01:11:44;5.47;;;2.97;;
53549;SDS011;67273;52.914;-0.982;2023-02-24T01:14:47;5.25;;;2.95;;
53549;SDS011;67273;52.914;-0.982;2023-02-24T01:17:14;5.60;;;3.08;;
53549;SDS011;67273;52.914;-0.982;2023-02-24T01:19:41;5.72;;;2.88;;
53549;SDS011;67273;52.914;-0.982;2023-02-24T01:22:10;5.93;;;2.92;;
53549;SDS011;67273;52.914;-0.982;2023-02-24T01:24:41;5.75;;;3.08;;
53549;SDS011;67273;52.914;-0.982;2023-02-24T01:27:09;5.72;;;3.30;;
53549;SDS011;67273;52.914;-0.982;2023-02-24T01:29:35;5.35;;;3.05;;
53549;SDS011;67273;52.914;-0.982;2023-02-24T01:32:03;5.13;;;3.00;;
53549;SDS011;67273;52.914;-0.982;2023-02-24T01:34:29;4.60;;;2.75;;
53549;SDS011;67273;52.914;-0.982;2023-02-24T01:36:56;5.70;;;3.13;;
53549;SDS011;67273;52.914;-0.982;2023-02-24T01:39:22;5.40;;;2.80;;
53549;SDS011;67273;52.914;-0.982;2023-02-24T01:41:51;4.65;;;2.88;;
53549;SDS011;67273;52.914;-0.982;2023-02-24T01:47:29;6.03;;;2.88;;
53549;SDS011;67273;52.914;-0.982;2023-02-24T01:49:55;3.65;;;2.65;;
53549;SDS011;67273;52.914;-0.982;2023-02-24T01:52:22;5.53;;;2.78;;
53549;SDS011;67273;52.914;-0.982;2023-02-24T01:54:52;5.55;;;3.08;;
53549;SDS011;67273;52.914;-0.982;2023-02-24T01:57:25;6.68;;;2.88;;
53549;SDS011;67273;52.914;-0.982;2023-02-24T01:59:53;5.70;;;3.15;;
53549;SDS011;67273;52.914;-0.982;2023-02-24T02:02:40;4.65;;;2.45;;
53549;SDS011;67273;52.914;-0.982;2023-02-24T02:05:10;4.32;;;2.65;;
53549;SDS011;67273;52.914;-0.982;2023-02-24T02:07:37;6.57;;;2.75;;
53549;SDS011;67273;52.914;-0.982;2023-02-24T02:10:05;5.03;;;2.42;;
53549;SDS011;67273;52.914;-0.982;2023-02-24T02:12:35;4.57;;;2.80;;
53549;SDS011;67273;52.914;-0.982;2023-02-24T02:15:03;3.78;;;2.20;;
53549;SDS011;67273;52.914;-0.982;2023-02-24T02:17:31;5.68;;;2.50;;
53549;SDS011;67273;52.914;-0.982;2023-02-24T02:20:21;3.83;;;2.00;;
53549;SDS011;67273;52.914;-0.982;2023-02-24T02:23:14;4.75;;;2.47;;
53549;SDS011;67273;52.914;-0.982;2023-02-24T02:25:57;5.35;;;2.70;;
53549;SDS011;67273;52.914;-0.982;2023-02-24T02:32:00;5.03;;;2.40;;
53549;SDS011;67273;52.914;-0.982;2023-02-24T02:34:48;4.85;;;2.33;;
53549;SDS011;67273;52.914;-0.982;2023-02-24T02:37:22;4.00;;;2.28;;
53549;SDS011;67273;52.914;-0.982;2023-02-24T02:40:00;5.47;;;2.70;;
53549;SDS011;67273;52.914;-0.982;2023-02-24T02:42:43;4.50;;;1.98;;
53549;SDS011;67273;52.914;-0.982;2023-02-24T02:45:16;4.43;;;2.45;;
53549;SDS011;67273;52.914;-0.982;2023-02-24T02:47:47;6.40;;;2.35;;
53549;SDS011;67273;52.914;-0.982;2023-02-24T02:50:18;6.28;;;2.55;;
53549;SDS011;67273;52.914;-0.982;2023-02-24T02:52:52;4.47;;;2.15;;
53549;SDS011;67273;52.914;-0.982;2023-02-24T02:55:23;6.10;;;2.63;;
53549;SDS011;67273;52.914;-0.982;2023-02-24T02:57:56;2.65;;;1.80;;
53549;SDS011;67273;52.914;-0.982;2023-02-24T03:00:25;4.00;;;2.03;;
53549;SDS011;67273;52.914;-0.982;2023-02-24T03:02:55;4.70;;;2.30;;
53549;SDS011;67273;52.914;-0.982;2023-02-24T03:05:33;3.80;;;2.33;;
53549;SDS011;67273;52.914;-0.982;2023-02-24T03:08:12;4.03;;;1.98;;
53549;SDS011;67273;52.914;-0.982;2023-02-24T03:10:43;4.03;;;1.98;;
53549;SDS011;67273;52.914;-0.982;2023-02-24T03:13:16;4.82;;;2.35;;
53549;SDS011;67273;52.914;-0.982;2023-02-24T03:15:45;4.70;;;2.50;;
53549;SDS011;67273;52.914;-0.982;2023-02-24T03:18:13;4.43;;;2.47;;
53549;SDS011;67273;52.914;-0.982;2023-02-24T03:20:45;4.53;;;2.05;;
53549;SDS011;67273;52.914;-0.982;2023-02-24T03:23:17;4.68;;;2.10;;
53549;SDS011;67273;52.914;-0.982;2023-02-24T03:25:47;3.70;;;1.98;;
53549;SDS011;67273;52.914;-0.982;2023-02-24T03:28:20;5.20;;;2.50;;
53549;SDS011;67273;52.914;-0.982;2023-02-24T03:30:55;3.35;;;1.95;;
53549;SDS011;67273;52.914;-0.982;2023-02-24T03:33:30;3.40;;;1.92;;
53549;SDS011;67273;52.914;-0.982;2023-02-24T03:36:01;4.50;;;2.10;;
53549;SDS011;67273;52.914;-0.982;2023-02-24T03:38:29;4.13;;;2.22;;
53549;SDS011;67273;52.914;-0.982;2023-02-24T03:40:58;4.32;;;2.20;;
53549;SDS011;67273;52.914;-0.982;2023-02-24T03:43:28;3.47;;;2.30;;
53549;SDS011;67273;52.914;-0.982;2023-02-24T03:45:57;4.05;;;1.95;;
53549;SDS011;67273;52.914;-0.982;2023-02-24T03:48:26;3.72;;;2.03;;
53549;SDS011;67273;52.914;-0.982;2023-02-24T03:50:54;3.72;;;1.98;;
53549;SDS011;67273;52.914;-0.982;2023-02-24T03:53:42;4.43;;;2.30;;
53549;SDS011;67273;52.914;-0.982;2023-02-24T03:56:25;5.28;;;1.98;;
53549;SDS011;67273;52.914;-0.982;2023-02-24T03:59:03;3.38;;;1.90;;
53549;SDS011;67273;52.914;-0.982;2023-02-24T04:01:42;4.50;;;1.88;;
53549;SDS011;67273;52.914;-0.982;2023-02-24T04:04:23;4.13;;;2.13;;
53549;SDS011;67273;52.914;-0.982;2023-02-24T04:07:13;4.95;;;2.00;;
53549;SDS011;67273;52.914;-0.982;2023-02-24T04:09:54;3.40;;;1.80;;
53549;SDS011;67273;52.914;-0.982;2023-02-24T04:12:28;2.85;;;1.65;;
53549;SDS011;67273;52.914;-0.982;2023-02-24T04:15:04;3.65;;;1.60;;
53549;SDS011;67273;52.914;-0.982;2023-02-24T04:17:37;3.10;;;1.70;;
53549;SDS011;67273;52.914;-0.982;2023-02-24T04:20:14;3.38;;;1.67;;
53549;SDS011;67273;52.914;-0.982;2023-02-24T04:22:52;3.60;;;2.00;;
53549;SDS011;67273;52.914;-0.982;2023-02-24T04:25:26;3.53;;;1.90;;
53549;SDS011;67273;52.914;-0.982;2023-02-24T04:27:56;3.15;;;1.88;;
53549;SDS011;67273;52.914;-0.982;2023-02-24T04:30:28;3.92;;;2.13;;
53549;SDS011;67273;52.914;-0.982;2023-02-24T04:32:58;3.35;;;1.90;;
53549;SDS011;67273;52.914;-0.982;2023-02-24T04:35:25;3.70;;;1.88;;
53549;SDS011;67273;52.914;-0.982;2023-02-24T04:37:55;2.45;;;1.63;;
53549;SDS011;67273;52.914;-0.982;2023-02-24T04:40:27;3.85;;;1.90;;
53549;SDS011;67273;52.914;-0.982;2023-02-24T04:42:56;4.90;;;1.75;;
53549;SDS011;67273;52.914;-0.982;2023-02-24T04:45:25;3.08;;;1.65;;
53549;SDS011;67273;52.914;-0.982;2023-02-24T04:47:55;3.92;;;1.88;;
53549;SDS011;67273;52.914;-0.982;2023-02-24T04:50:29;2.65;;;1.50;;
53549;SDS011;67273;52.914;-0.982;2023-02-24T04:53:02;3.63;;;1.58;;
53549;SDS011;67273;52.914;-0.982;2023-02-24T04:55:35;3.20;;;1.83;;
53549;SDS011;67273;52.914;-0.982;2023-02-24T04:58:05;2.40;;;1.55;;
53549;SDS011;67273;52.914;-0.982;2023-02-24T05:00:36;3.55;;;1.60;;
53549;SDS011;67273;52.914;-0.982;2023-02-24T05:03:07;2.97;;;1.65;;
53549;SDS011;67273;52.914;-0.982;2023-02-24T05:05:36;2.85;;;1.80;;
53549;SDS011;67273;52.914;-0.982;2023-02-24T05:08:04;3.25;;;1.70;;
53549;SDS011;67273;52.914;-0.982;2023-02-24T05:10:37;3.63;;;1.80;;
53549;SDS011;67273;52.914;-0.982;2023-02-24T05:13:10;3.13;;;1.83;;
53549;SDS011;67273;52.914;-0.982;2023-02-24T05:15:40;2.65;;;1.60;;
53549;SDS011;67273;52.914;-0.982;2023-02-24T05:18:10;2.53;;;1.65;;
53549;SDS011;67273;52.914;-0.982;2023-02-24T05:20:49;2.08;;;1.50;;
53549;SDS011;67273;52.914;-0.982;2023-02-24T05:23:36;2.38;;;1.60;;
53549;SDS011;67273;52.914;-0.982;2023-02-24T05:26:07;2.67;;;1.55;;
53549;SDS011;67273;52.914;-0.982;2023-02-24T05:28:34;4.40;;;1.50;;
53549;SDS011;67273;52.914;-0.982;2023-02-24T05:31:03;2.60;;;1.60;;
53549;SDS011;67273;52.914;-0.982;2023-02-24T05:33:36;4.07;;;1.50;;
53549;SDS011;67273;52.914;-0.982;2023-02-24T05:36:03;1.83;;;1.40;;
53549;SDS011;67273;52.914;-0.982;2023-02-24T05:38:32;2.88;;;1.70;;
53549;SDS011;67273;52.914;-0.982;2023-02-24T05:41:06;4.25;;;1.95;;
53549;SDS011;67273;52.914;-0.982;2023-02-24T05:43:41;2.90;;;1.55;;
53549;SDS011;67273;52.914;-0.982;2023-02-24T05:46:07;2.97;;;1.67;;
53549;SDS011;67273;52.914;-0.982;2023-02-24T05:48:32;1.83;;;1.40;;
53549;SDS011;67273;52.914;-0.982;2023-02-24T05:50:59;2.50;;;1.70;;
53549;SDS011;67273;52.914;-0.982;2023-02-24T05:53:26;2.45;;;1.55;;
53549;SDS011;67273;52.914;-0.982;2023-02-24T05:55:51;2.38;;;1.40;;
53549;SDS011;67273;52.914;-0.982;2023-02-24T05:58:18;2.45;;;1.40;;
53549;SDS011;67273;52.914;-0.982;2023-02-24T06:00:44;2.10;;;1.42;;
53549;SDS011;67273;52.914;-0.982;2023-02-24T06:03:10;2.60;;;1.50;;
53549;SDS011;67273;52.914;-0.982;2023-02-24T06:05:41;2.97;;;1.60;;
53549;SDS011;67273;52.914;-0.982;2023-02-24T06:08:07;3.40;;;1.70;;
53549;SDS011;67273;52.914;-0.982;2023-02-24T06:10:36;3.60;;;1.60;;
53549;SDS011;67273;52.914;-0.982;2023-02-24T06:13:04;3.10;;;1.35;;
53549;SDS011;67273;52.914;-0.982;2023-02-24T06:15:33;1.65;;;1.30;;
53549;SDS011;67273;52.914;-0.982;2023-02-24T06:17:59;3.45;;;2.15;;
53549;SDS011;67273;52.914;-0.982;2023-02-24T06:20:25;4.50;;;1.77;;
53549;SDS011;67273;52.914;-0.982;2023-02-24T06:22:52;3.60;;;1.73;;
53549;SDS011;67273;52.914;-0.982;2023-02-24T06:25:21;2.83;;;1.55;;
53549;SDS011;67273;52.914;-0.982;2023-02-24T06:27:51;3.90;;;1.48;;
53549;SDS011;67273;52.914;-0.982;2023-02-24T06:30:19;2.88;;;1.70;;
53549;SDS011;67273;52.914;-0.982;2023-02-24T06:32:47;1.70;;;1.33;;
53549;SDS011;67273;52.914;-0.982;2023-02-24T06:35:13;3.28;;;1.60;;
53549;SDS011;67273;52.914;-0.982;2023-02-24T06:37:40;3.67;;;1.58;;
53549;SDS011;67273;52.914;-0.982;2023-02-24T06:40:05;2.60;;;1.58;;
53549;SDS011;67273;52.914;-0.982;2023-02-24T06:42:58;2.35;;;1.40;;
53549;SDS011;67273;52.914;-0.982;2023-02-24T06:45:24;2.95;;;1.58;;
53549;SDS011;67273;52.914;-0.982;2023-02-24T06:47:51;2.95;;;1.50;;
53549;SDS011;67273;52.914;-0.982;2023-02-24T06:50:18;2.45;;;1.30;;
53549;SDS011;67273;52.914;-0.982;2023-02-24T06:52:44;3.67;;;1.45;;
53549;SDS011;67273;52.914;-0.982;2023-02-24T06:55:10;1.30;;;1.10;;
53549;SDS011;67273;52.914;-0.982;2023-02-24T06:57:50;2.80;;;1.23;;
53549;SDS011;67273;52.914;-0.982;2023-02-24T07:00:18;1.90;;;1.30;;
53549;SDS011;67273;52.914;-0.982;2023-02-24T07:02:44;2.58;;;1.40;;
53549;SDS011;67273;52.914;-0.982;2023-02-24T07:05:11;2.40;;;1.25;;
53549;SDS011;67273;52.914;-0.982;2023-02-24T07:07:38;2.10;;;1.40;;
53549;SDS011;67273;52.914;-0.982;2023-02-24T07:10:10;2.45;;;1.30;;
53549;SDS011;67273;52.914;-0.982;2023-02-24T07:12:37;2.85;;;1.50;;
53549;SDS011;67273;52.914;-0.982;2023-02-24T07:15:06;2.30;;;1.40;;
53549;SDS011;67273;52.914;-0.982;2023-02-24T07:17:32;1.98;;;1.30;;
53549;SDS011;67273;52.914;-0.982;2023-02-24T07:19:58;2.05;;;1.20;;
53549;SDS011;67273;52.914;-0.982;2023-02-24T07:22:36;2.35;;;1.35;;
53549;SDS011;67273;52.914;-0.982;2023-02-24T07:25:02;2.05;;;1.13;;
53549;SDS011;67273;52.914;-0.982;2023-02-24T07:27:31;1.27;;;1.02;;
53549;SDS011;67273;52.914;-0.982;2023-02-24T07:29:57;1.58;;;1.10;;
53549;SDS011;67273;52.914;-0.982;2023-02-24T07:32:23;2.55;;;1.30;;
53549;SDS011;67273;52.914;-0.982;2023-02-24T07:34:49;2.03;;;1.30;;
53549;SDS011;67273;52.914;-0.982;2023-02-24T07:37:15;1.73;;;1.10;;
53549;SDS011;67273;52.914;-0.982;2023-02-24T07:39:42;2.97;;;1.45;;
53549;SDS011;67273;52.914;-0.982;2023-02-24T07:42:09;2.08;;;1.27;;
53549;SDS011;67273;52.914;-0.982;2023-02-24T07:44:42;3.17;;;1.30;;
53549;SDS011;67273;52.914;-0.982;2023-02-24T07:47:10;3.17;;;1.27;;
53549;SDS011;67273;52.914;-0.982;2023-02-24T07:49:36;1.35;;;1.20;;
53549;SDS011;67273;52.914;-0.982;2023-02-24T07:52:03;1.70;;;1.00;;
53549;SDS011;67273;52.914;-0.982;2023-02-24T07:54:32;2.17;;;1.10;;
53549;SDS011;67273;52.914;-0.982;2023-02-24T07:57:00;2.70;;;1.48;;
53549;SDS011;67273;52.914;-0.982;2023-02-24T07:59:26;1.70;;;1.10;;
53549;SDS011;67273;52.914;-0.982;2023-02-24T08:01:53;2.17;;;1.30;;
53549;SDS011;67273;52.914;-0.982;2023-02-24T08:04:23;2.88;;;1.27;;
53549;SDS011;67273;52.914;-0.982;2023-02-24T08:06:51;2.20;;;1.20;;
53549;SDS011;67273;52.914;-0.982;2023-02-24T08:09:21;3.13;;;1.30;;
53549;SDS011;67273;52.914;-0.982;2023-02-24T08:12:09;2.67;;;1.50;;
53549;SDS011;67273;52.914;-0.982;2023-02-24T08:14:35;5.53;;;1.30;;
53549;SDS011;67273;52.914;-0.982;2023-02-24T08:17:08;2.73;;;1.27;;
53549;SDS011;67273;52.914;-0.982;2023-02-24T08:19:36;2.80;;;1.42;;
53549;SDS011;67273;52.914;-0.982;2023-02-24T08:22:06;3.30;;;1.08;;
53549;SDS011;67273;52.914;-0.982;2023-02-24T08:24:50;3.08;;;1.48;;
53549;SDS011;67273;52.914;-0.982;2023-02-24T08:27:18;1.92;;;1.10;;
53549;SDS011;67273;52.914;-0.982;2023-02-24T08:29:46;3.03;;;1.30;;
53549;SDS011;67273;52.914;-0.982;2023-02-24T08:32:22;3.75;;;1.50;;
53549;SDS011;67273;52.914;-0.982;2023-02-24T08:34:48;3.05;;;1.40;;
53549;SDS011;67273;52.914;-0.982;2023-02-24T08:37:14;2.30;;;1.38;;
53549;SDS011;67273;52.914;-0.982;2023-02-24T08:39:40;1.80;;;1.20;;
53549;SDS011;67273;52.914;-0.982;2023-02-24T08:42:08;1.70;;;1.20;;
53549;SDS011;67273;52.914;-0.982;2023-02-24T08:44:35;3.92;;;1.30;;
53549;SDS011;67273;52.914;-0.982;2023-02-24T08:47:01;1.95;;;1.40;;
53549;SDS011;67273;52.914;-0.982;2023-02-24T08:49:29;2.72;;;1.40;;
53549;SDS011;67273;52.914;-0.982;2023-02-24T08:51:57;3.60;;;1.70;;
53549;SDS011;67273;52.914;-0.982;2023-02-24T08:54:26;3.05;;;1.42;;
53549;SDS011;67273;52.914;-0.982;2023-02-24T08:56:56;5.30;;;1.67;;
53549;SDS011;67273;52.914;-0.982;2023-02-24T08:59:33;1.73;;;1.27;;
53549;SDS011;67273;52.914;-0.982;2023-02-24T09:02:12;2.45;;;1.45;;
53549;SDS011;67273;52.914;-0.982;2023-02-24T09:07:12;2.63;;;1.40;;
53549;SDS011;67273;52.914;-0.982;2023-02-24T09:09:39;2.47;;;1.40;;
53549;SDS011;67273;52.914;-0.982;2023-02-24T09:12:06;1.70;;;1.20;;
53549;SDS011;67273;52.914;-0.982;2023-02-24T09:14:35;3.03;;;1.48;;
53549;SDS011;67273;52.914;-0.982;2023-02-24T09:17:02;3.55;;;1.52;;
53549;SDS011;67273;52.914;-0.982;2023-02-24T09:19:30;2.63;;;1.33;;
53549;SDS011;67273;52.914;-0.982;2023-02-24T09:22:26;2.35;;;1.48;;
53549;SDS011;67273;52.914;-0.982;2023-02-24T09:24:56;3.45;;;1.48;;
53549;SDS011;67273;52.914;-0.982;2023-02-24T09:27:42;3.65;;;1.52;;
53549;SDS011;67273;52.914;-0.982;2023-02-24T09:30:10;4.22;;;1.40;;
53549;SDS011;67273;52.914;-0.982;2023-02-24T09:32:56;3.30;;;1.60;;
53549;SDS011;67273;52.914;-0.982;2023-02-24T09:35:25;2.58;;;1.38;;
53549;SDS011;67273;52.914;-0.982;2023-02-24T09:37:55;3.83;;;1.45;;
53549;SDS011;67273;52.914;-0.982;2023-02-24T09:40:21;3.72;;;1.50;;
53549;SDS011;67273;52.914;-0.982;2023-02-24T09:43:03;3.53;;;1.80;;
53549;SDS011;67273;52.914;-0.982;2023-02-24T09:45:36;3.13;;;1.27;;
53549;SDS011;67273;52.914;-0.982;2023-02-24T09:48:04;4.50;;;1.50;;
53549;SDS011;67273;52.914;-0.982;2023-02-24T09:50:40;3.03;;;1.50;;
53549;SDS011;67273;52.914;-0.982;2023-02-24T09:53:25;4.30;;;1.63;;
53549;SDS011;67273;52.914;-0.982;2023-02-24T09:56:08;2.42;;;1.10;;
53549;SDS011;67273;52.914;-0.982;2023-02-24T09:58:41;3.03;;;1.40;;
53549;SDS011;67273;52.914;-0.982;2023-02-24T10:04:12;2.28;;;1.20;;
53549;SDS011;67273;52.914;-0.982;2023-02-24T10:06:46;2.15;;;1.27;;
53549;SDS011;67273;52.914;-0.982;2023-02-24T10:09:16;2.95;;;1.27;;
53549;SDS011;67273;52.914;-0.982;2023-02-24T10:11:49;3.97;;;1.30;;
53549;SDS011;67273;52.914;-0.982;2023-02-24T10:14:19;3.40;;;1.23;;
53549;SDS011;67273;52.914;-0.982;2023-02-24T10:16:54;3.28;;;1.25;;
53549;SDS011;67273;52.914;-0.982;2023-02-24T10:19:39;2.25;;;1.23;;
53549;SDS011;67273;52.914;-0.982;2023-02-24T10:22:07;2.92;;;1.38;;
53549;SDS011;67273;52.914;-0.982;2023-02-24T10:24:53;2.97;;;1.42;;
53549;SDS011;67273;52.914;-0.982;2023-02-24T10:27:36;3.20;;;1.27;;
53549;SDS011;67273;52.914;-0.982;2023-02-24T10:30:21;2.17;;;1.25;;
53549;SDS011;67273;52.914;-0.982;2023-02-24T10:33:10;2.58;;;1.30;;
53549;SDS011;67273;52.914;-0.982;2023-02-24T10:35:42;2.58;;;1.25;;
53549;SDS011;67273;52.914;-0.982;2023-02-24T10:38:08;2.75;;;1.15;;
53549;SDS011;67273;52.914;-0.982;2023-02-24T10:40:42;3.10;;;1.35;;
53549;SDS011;67273;52.914;-0.982;2023-02-24T10:43:14;1.88;;;0.90;;
53549;SDS011;67273;52.914;-0.982;2023-02-24T10:45:43;2.92;;;1.42;;
53549;SDS011;67273;52.914;-0.982;2023-02-24T10:48:17;1.60;;;1.27;;
53549;SDS011;67273;52.914;-0.982;2023-02-24T10:50:49;3.80;;;1.35;;
53549;SDS011;67273;52.914;-0.982;2023-02-24T10:53:19;3.00;;;1.20;;
53549;SDS011;67273;52.914;-0.982;2023-02-24T10:55:53;2.22;;;1.10;;
53549;SDS011;67273;52.914;-0.982;2023-02-24T10:58:41;2.20;;;1.20;;
53549;SDS011;67273;52.914;-0.982;2023-02-24T11:01:23;2.88;;;1.30;;
53549;SDS011;67273;52.914;-0.982;2023-02-24T11:04:11;3.50;;;1.42;;
53549;SDS011;67273;52.914;-0.982;2023-02-24T11:07:01;2.20;;;1.27;;
53549;SDS011;67273;52.914;-0.982;2023-02-24T11:09:33;1.58;;;0.93;;
53549;SDS011;67273;52.914;-0.982;2023-02-24T11:12:11;1.67;;;1.20;;
53549;SDS011;67273;52.914;-0.982;2023-02-24T11:15:00;2.85;;;1.50;;
53549;SDS011;67273;52.914;-0.982;2023-02-24T11:17:47;1.80;;;1.08;;
53549;SDS011;67273;52.914;-0.982;2023-02-24T11:20:20;1.95;;;1.30;;
53549;SDS011;67273;52.914;-0.982;2023-02-24T11:22:52;1.95;;;1.17;;
53549;SDS011;67273;52.914;-0.982;2023-02-24T11:25:21;1.92;;;1.05;;
53549;SDS011;67273;52.914;-0.982;2023-02-24T11:27:50;4.05;;;1.30;;
53549;SDS011;67273;52.914;-0.982;2023-02-24T11:30:19;3.15;;;1.40;;
53549;SDS011;67273;52.914;-0.982;2023-02-24T11:32:53;3.08;;;1.30;;
53549;SDS011;67273;52.914;-0.982;2023-02-24T11:35:35;2.72;;;1.30;;
53549;SDS011;67273;52.914;-0.982;2023-02-24T11:38:10;2.53;;;1.33;;
53549;SDS011;67273;52.914;-0.982;2023-02-24T11:40:53;2.70;;;1.47;;
53549;SDS011;67273;52.914;-0.982;2023-02-24T11:43:27;4.30;;;1.35;;
53549;SDS011;67273;52.914;-0.982;2023-02-24T11:45:57;2.42;;;1.30;;
53549;SDS011;67273;52.914;-0.982;2023-02-24T11:48:29;2.13;;;1.33;;
53549;SDS011;67273;52.914;-0.982;2023-02-24T11:51:01;3.88;;;1.60;;
53549;SDS011;67273;52.914;-0.982;2023-02-24T11:53:30;3.30;;;1.30;;
53549;SDS011;67273;52.914;-0.982;2023-02-24T11:56:01;3.50;;;1.65;;
53549;SDS011;67273;52.914;-0.982;2023-02-24T11:58:33;2.17;;;1.20;;
53549;SDS011;67273;52.914;-0.982;2023-02-24T12:01:07;3.40;;;1.48;;
53549;SDS011;67273;52.914;-0.982;2023-02-24T12:03:39;3.95;;;1.58;;
53549;SDS011;67273;52.914;-0.982;2023-02-24T12:06:15;1.85;;;1.20;;
53549;SDS011;67273;52.914;-0.982;2023-02-24T12:08:48;2.78;;;1.60;;
53549;SDS011;67273;52.914;-0.982;2023-02-24T12:11:19;3.20;;;1.45;;
53549;SDS011;67273;52.914;-0.982;2023-02-24T12:13:52;2.67;;;1.65;;
53549;SDS011;67273;52.914;-0.982;2023-02-24T12:16:24;2.55;;;1.42;;
53549;SDS011;67273;52.914;-0.982;2023-02-24T12:18:58;1.92;;;1.20;;
53549;SDS011;67273;52.914;-0.982;2023-02-24T12:21:30;3.28;;;1.40;;
53549;SDS011;67273;52.914;-0.982;2023-02-24T12:24:00;2.53;;;1.50;;
53549;SDS011;67273;52.914;-0.982;2023-02-24T12:26:30;3.33;;;1.40;;
53549;SDS011;67273;52.914;-0.982;2023-02-24T12:29:23;3.53;;;1.40;;
53549;SDS011;67273;52.914;-0.982;2023-02-24T12:32:08;4.57;;;1.30;;
53549;SDS011;67273;52.914;-0.982;2023-02-24T12:34:46;4.13;;;1.38;;
53549;SDS011;67273;52.914;-0.982;2023-02-24T12:37:34;2.38;;;1.40;;
53549;SDS011;67273;52.914;-0.982;2023-02-24T12:40:14;3.40;;;1.42;;
53549;SDS011;67273;52.914;-0.982;2023-02-24T12:42:50;1.92;;;1.30;;
53549;SDS011;67273;52.914;-0.982;2023-02-24T12:45:25;2.90;;;1.38;;
53549;SDS011;67273;52.914;-0.982;2023-02-24T12:48:04;2.88;;;1.38;;
53549;SDS011;67273;52.914;-0.982;2023-02-24T12:50:43;2.83;;;1.40;;
53549;SDS011;67273;52.914;-0.982;2023-02-24T12:53:20;2.80;;;1.35;;
53549;SDS011;67273;52.914;-0.982;2023-02-24T12:55:54;2.88;;;1.30;;
53549;SDS011;67273;52.914;-0.982;2023-02-24T12:58:31;2.15;;;1.17;;
53549;SDS011;67273;52.914;-0.982;2023-02-24T13:01:01;2.13;;;1.13;;
53549;SDS011;67273;52.914;-0.982;2023-02-24T13:03:41;2.53;;;1.40;;
53549;SDS011;67273;52.914;-0.982;2023-02-24T13:06:19;1.83;;;1.25;;
53549;SDS011;67273;52.914;-0.982;2023-02-24T13:08:57;2.53;;;1.48;;
53549;SDS011;67273;52.914;-0.982;2023-02-24T13:11:30;3.88;;;1.50;;
53549;SDS011;67273;52.914;-0.982;2023-02-24T13:14:05;2.78;;;1.17;;
53549;SDS011;67273;52.914;-0.982;2023-02-24T13:16:38;2.83;;;1.40;;
53549;SDS011;67273;52.914;-0.982;2023-02-24T13:19:06;2.40;;;1.25;;
53549;SDS011;67273;52.914;-0.982;2023-02-24T13:21:52;2.95;;;1.30;;
53549;SDS011;67273;52.914;-0.982;2023-02-24T13:24:21;1.92;;;1.27;;
53549;SDS011;67273;52.914;-0.982;2023-02-24T13:26:49;3.88;;;1.45;;
53549;SDS011;67273;52.914;-0.982;2023-02-24T13:29:15;3.03;;;1.30;;
53549;SDS011;67273;52.914;-0.982;2023-02-24T13:31:42;2.70;;;1.17;;
53549;SDS011;67273;52.914;-0.982;2023-02-24T13:34:13;3.53;;;1.30;;
53549;SDS011;67273;52.914;-0.982;2023-02-24T13:36:44;3.10;;;1.60;;
53549;SDS011;67273;52.914;-0.982;2023-02-24T13:39:19;3.15;;;1.30;;
53549;SDS011;67273;52.914;-0.982;2023-02-24T13:41:59;2.60;;;1.30;;
53549;SDS011;67273;52.914;-0.982;2023-02-24T13:44:28;3.63;;;1.50;;
53549;SDS011;67273;52.914;-0.982;2023-02-24T13:47:02;2.67;;;1.48;;
53549;SDS011;67273;52.914;-0.982;2023-02-24T13:49:48;2.72;;;1.50;;
53549;SDS011;67273;52.914;-0.982;2023-02-24T13:52:27;3.47;;;1.40;;
53549;SDS011;67273;52.914;-0.982;2023-02-24T13:57:58;2.20;;;1.38;;
53549;SDS011;67273;52.914;-0.982;2023-02-24T14:00:39;4.28;;;1.42;;
53549;SDS011;67273;52.914;-0.982;2023-02-24T14:03:28;4.50;;;1.52;;
53549;SDS011;67273;52.914;-0.982;2023-02-24T14:05:54;2.78;;;1.30;;
53549;SDS011;67273;52.914;-0.982;2023-02-24T14:08:24;3.67;;;1.50;;
53549;SDS011;67273;52.914;-0.982;2023-02-24T14:10:57;6.00;;;1.70;;
53549;SDS011;67273;52.914;-0.982;2023-02-24T14:13:25;3.67;;;1.50;;
53549;SDS011;67273;52.914;-0.982;2023-02-24T14:15:54;3.97;;;1.65;;
53549;SDS011;67273;52.914;-0.982;2023-02-24T14:18:21;2.88;;;1.40;;
53549;SDS011;67273;52.914;-0.982;2023-02-24T14:20:48;4.15;;;1.90;;
53549;SDS011;67273;52.914;-0.982;2023-02-24T14:23:19;2.35;;;1.20;;
53549;SDS011;67273;52.914;-0.982;2023-02-24T14:25:47;2.35;;;1.30;;
53549;SDS011;67273;52.914;-0.982;2023-02-24T14:28:20;2.92;;;1.55;;
53549;SDS011;67273;52.914;-0.982;2023-02-24T14:30:50;4.78;;;1.42;;
53549;SDS011;67273;52.914;-0.982;2023-02-24T14:33:20;2.80;;;1.38;;
53549;SDS011;67273;52.914;-0.982;2023-02-24T14:35:51;2.60;;;1.42;;
53549;SDS011;67273;52.914;-0.982;2023-02-24T14:38:26;3.03;;;1.60;;
53549;SDS011;67273;52.914;-0.982;2023-02-24T14:40:53;2.50;;;1.30;;
53549;SDS011;67273;52.914;-0.982;2023-02-24T14:43:20;2.97;;;1.20;;
53549;SDS011;67273;52.914;-0.982;2023-02-24T14:45:47;4.18;;;1.60;;
53549;SDS011;67273;52.914;-0.982;2023-02-24T14:48:18;3.67;;;1.60;;
53549;SDS011;67273;52.914;-0.982;2023-02-24T14:50:47;2.85;;;1.50;;
53549;SDS011;67273;52.914;-0.982;2023-02-24T14:53:14;2.97;;;1.60;;
53549;SDS011;67273;52.914;-0.982;2023-02-24T14:55:43;3.55;;;1.50;;
53549;SDS011;67273;52.914;-0.982;2023-02-24T14:58:12;3.55;;;1.65;;
53549;SDS011;67273;52.914;-0.982;2023-02-24T15:00:46;2.92;;;1.60;;
53549;SDS011;67273;52.914;-0.982;2023-02-24T15:03:14;2.88;;;1.40;;
53549;SDS011;67273;52.914;-0.982;2023-02-24T15:05:46;4.38;;;1.38;;
53549;SDS011;67273;52.914;-0.982;2023-02-24T15:08:20;3.78;;;1.55;;
53549;SDS011;67273;52.914;-0.982;2023-02-24T15:10:54;3.13;;;1.50;;
53549;SDS011;67273;52.914;-0.982;2023-02-24T15:13:22;4.45;;;1.58;;
53549;SDS011;67273;52.914;-0.982;2023-02-24T15:15:55;2.38;;;1.30;;
53549;SDS011;67273;52.914;-0.982;2023-02-24T15:18:23;2.03;;;1.20;;